Time;durP1;ratioP1;P1;durP2;ratioP2;P2;SDS_P1;SDS_P2;PMS_P1;PMS_P2;Temp;Humidity;BMP_temperature;BMP_pressure;BME280_temperature;BME280_humidity;BME280_pressure;Samples;Min_cycle;Max_cycle;Signal;HPM_P1;HPM_P2
2024/02/15 00:00:53;;;;;;;45.40;23.70;;;;;;;-147.86;100.00;60237.28;105892;1253;72583;-58
2024/02/15 00:03:22;;;;;;;37.60;23.20;;;;;;;-147.86;100.00;59994.64;105863;1254;63387;-57
2024/02/15 00:05:50;;;;;;;38.60;23.20;;;;;;;-147.86;100.00;59698.15;105741;1253;71427;-56
2024/02/15 00:08:19;;;;;;;44.10;23.60;;;;;;;-147.86;100.00;59413.48;105689;1257;61612;-58
2024/02/15 00:10:47;;;;;;;43.40;25.10;;;;;;;-147.86;100.00;59010.48;105718;1253;60634;-59
2024/02/15 00:13:15;;;;;;;44.80;24.30;;;;;;;-147.86;100.00;58662.96;105875;1253;72591;-57
2024/02/15 00:15:43;;;;;;;40.50;23.50;;;;;;;-147.86;100.00;58361.84;105876;1253;63236;-57
2024/02/15 00:18:11;;;;;;;41.20;23.40;;;;;;;-147.86;100.00;57968.00;105821;1253;70887;-56
2024/02/15 00:20:39;;;;;;;41.90;23.30;;;;;;;-147.86;100.00;57633.14;105851;1257;60557;-56
2024/02/15 00:23:07;;;;;;;46.00;24.30;;;;;;;-147.86;100.00;57282.99;105822;1257;60367;-54
2024/02/15 00:25:35;;;;;;;42.00;24.80;;;;;;;-147.86;100.00;56853.89;105702;1253;72732;-60
2024/02/15 00:28:03;;;;;;;45.30;23.60;;;;;;;-147.86;100.00;56437.01;105864;1257;63445;-59
2024/02/15 00:30:31;;;;;;;45.10;25.70;;;;;;;-147.86;100.00;55965.18;105697;1257;71430;-58
2024/02/15 00:32:59;;;;;;;53.20;23.90;;;;;;;-147.86;100.00;55573.93;105835;1253;61628;-59
2024/02/15 00:35:27;;;;;;;45.90;24.10;;;;;;;-147.86;100.00;55254.20;105706;1258;60448;-59
2024/02/15 00:37:55;;;;;;;40.00;22.70;;;;;;;-147.86;100.00;54929.39;105680;1253;72548;-56
2024/02/15 00:40:23;;;;;;;46.00;24.40;;;;;;;-147.86;100.00;54584.18;105812;1253;62911;-57
2024/02/15 00:42:51;;;;;;;44.90;24.50;;;;;;;-147.86;100.00;54172.26;105861;1254;71259;-58
2024/02/15 00:45:18;;;;;;;42.40;23.80;;;;;;;-147.86;100.00;53822.02;105826;1253;61502;-57
2024/02/15 00:47:46;;;;;;;42.40;24.90;;;;;;;-147.86;100.00;53493.79;105838;1254;60491;-57
2024/02/15 00:50:14;;;;;;;38.80;23.40;;;;;;;-147.86;100.00;53118.49;105815;1253;72560;-58
2024/02/15 00:52:42;;;;;;;44.20;23.40;;;;;;;-147.86;100.00;52807.59;105664;1253;63149;-60
2024/02/15 00:55:11;;;;;;;43.60;24.10;;;;;;;-147.86;100.00;52542.25;105911;1258;70771;-56
2024/02/15 00:57:38;;;;;;;40.50;22.80;;;;;;;-147.86;100.00;52301.26;105815;1257;60554;-56
2024/02/15 01:00:09;;;;;;;40.50;23.80;;;;;;;-147.86;100.00;52624.75;105870;1257;60371;-57
2024/02/15 01:02:37;;;;;;;45.60;23.70;;;;;;;-147.86;100.00;51804.80;105897;1253;73951;-57
2024/02/15 01:05:06;;;;;;;46.00;24.40;;;;;;;-147.86;100.00;51578.77;105825;1254;63135;-57
2024/02/15 01:07:34;;;;;;;48.00;24.40;;;;;;;-147.86;100.00;51322.15;105678;1253;70949;-59
2024/02/15 01:10:04;;;;;;;44.70;25.10;;;;;;;-147.86;100.00;51205.22;105659;1253;61647;-58
2024/02/15 01:12:33;;;;;;;50.10;25.70;;;;;;;-147.86;100.00;51033.75;105908;1257;60447;-57
2024/02/15 01:15:01;;;;;;;48.20;26.00;;;;;;;-147.86;100.00;50832.09;105862;1253;72619;-58
2024/02/15 01:17:28;;;;;;;49.40;26.50;;;;;;;-147.86;100.00;50717.14;105697;1257;63129;-59
2024/02/15 01:19:57;;;;;;;51.20;25.70;;;;;;;-147.86;100.00;50608.86;105867;1257;71675;-58
2024/02/15 01:22:26;;;;;;;44.10;25.70;;;;;;;-147.86;100.00;50500.58;105871;1253;60495;-57
2024/02/15 01:24:56;;;;;;;46.80;26.40;;;;;;;-147.86;100.00;50442.91;105866;1253;60461;-58
2024/02/15 01:27:26;;;;;;;44.30;25.50;;;;;;;-147.86;100.00;50355.04;105744;1257;72596;-58
2024/02/15 01:29:53;;;;;;;51.30;26.60;;;;;;;-147.86;100.00;50276.20;105885;1254;64479;-56
2024/02/15 01:32:21;;;;;;;53.00;28.90;;;;;;;-147.86;100.00;50204.01;105881;1253;71348;-60
2024/02/15 01:34:51;;;;;;;52.80;28.20;;;;;;;-147.86;100.00;50156.94;105527;1256;61616;-58
2024/02/15 01:37:20;;;;;;;60.00;29.10;;;;;;;-147.86;100.00;50157.34;105625;1257;60444;-57
2024/02/15 01:39:47;;;;;;;49.80;28.50;;;;;;;-147.86;100.00;50208.72;105870;1258;73815;-58
2024/02/15 01:42:15;;;;;;;52.20;26.80;;;;;;;-147.86;100.00;50301.30;105934;1255;64351;-59
2024/02/15 01:44:47;;;;;;;56.90;28.60;;;;;;;-147.86;100.00;50455.47;105834;1257;72601;-60
2024/02/15 01:47:17;;;;;;;57.10;28.70;;;;;;;-147.86;100.00;50478.62;105883;1253;60527;-58
2024/02/15 01:49:44;;;;;;;52.70;29.80;;;;;;;-147.86;100.00;50648.88;105872;1254;60443;-61
2024/02/15 01:52:13;;;;;;;49.60;28.00;;;;;;;-147.86;100.00;51004.34;105640;1253;72544;-57
2024/02/15 01:54:41;;;;;;;54.90;28.30;;;;;;;-147.86;100.00;51185.60;105863;1253;63158;-57
2024/02/15 01:57:10;;;;;;;57.00;28.10;;;;;;;-147.86;100.00;51263.29;105904;1257;72610;-58
2024/02/15 01:59:37;;;;;;;49.40;28.20;;;;;;;-147.86;100.00;51370.80;105685;1258;60517;-56
2024/02/15 02:02:08;;;;;;;48.00;28.10;;;;;;;-147.86;100.00;51542.68;105858;1253;60486;-58
2024/02/15 02:04:37;;;;;;;49.40;28.70;;;;;;;-147.86;100.00;51610.17;105830;1254;73827;-54
2024/02/15 02:07:05;;;;;;;58.80;30.20;;;;;;;-147.86;100.00;51708.66;105887;1253;63420;-60
2024/02/15 02:09:33;;;;;;;51.50;28.40;;;;;;;-147.86;100.00;51836.20;105678;1257;71203;-59
2024/02/15 02:12:01;;;;;;;51.50;28.00;;;;;;;-147.86;100.00;52046.55;105811;1253;60460;-60
2024/02/15 02:14:29;;;;;;;53.80;27.20;;;;;;;-147.86;100.00;52172.53;105681;1253;60643;-57
2024/02/15 02:17:13;;;;;;;46.30;26.60;;;;;;;-147.86;100.00;52206.68;105885;1253;72578;-56
2024/02/15 02:19:43;;;;;;;44.80;26.00;;;;;;;-147.86;100.00;52072.86;105720;1253;63121;-59
2024/02/15 02:23:26;;;;;;;53.00;28.40;;;;;;;-147.86;100.00;55332.87;102749;1290;600466;-57
2024/02/15 02:25:54;;;;;;;45.10;26.60;;;;;;;-147.86;100.00;45623.98;105043;1266;60586;-57
2024/02/15 02:28:22;;;;;;;51.60;28.00;;;;;;;-147.86;100.00;47940.90;105595;1254;59394;-57
2024/02/15 02:30:50;;;;;;;54.20;28.40;;;;;;;-147.86;100.00;48798.38;105642;1259;72190;-57
2024/02/15 02:33:22;;;;;;;46.10;26.50;;;;;;;-147.86;100.00;49264.25;105674;1254;64452;-59
2024/02/15 02:35:50;;;;;;;46.00;26.40;;;;;;;-147.86;100.00;49571.34;105613;1260;72683;-59
2024/02/15 02:38:18;;;;;;;54.20;28.00;;;;;;;-147.86;100.00;49938.46;105664;1257;61306;-56
2024/02/15 02:40:46;;;;;;;45.20;26.70;;;;;;;-147.86;100.00;50283.65;106004;1257;59969;-60
2024/02/15 02:43:14;;;;;;;46.80;26.40;;;;;;;-147.86;100.00;50451.94;105880;1251;70931;-58
2024/02/15 02:45:42;;;;;;;42.70;25.60;;;;;;;-147.86;100.00;50645.74;105897;1253;64512;-59
2024/02/15 02:48:10;;;;;;;41.50;25.50;;;;;;;-147.86;100.00;50768.54;105882;1257;71870;-58
2024/02/15 02:50:38;;;;;;;44.60;25.50;;;;;;;-147.86;100.00;50938.81;105896;1251;61614;-58
2024/02/15 02:53:06;;;;;;;43.40;25.40;;;;;;;-147.86;100.00;51248.77;105812;1257;59660;-57
2024/02/15 02:55:34;;;;;;;42.60;27.10;;;;;;;-147.86;100.00;51423.38;105626;1254;71768;-56
2024/02/15 02:58:02;;;;;;;44.40;27.40;;;;;;;-147.86;100.00;51435.94;105638;1257;64560;-57
2024/02/15 03:00:31;;;;;;;49.50;26.40;;;;;;;-147.86;100.00;51567.79;105751;1257;71209;-58
2024/02/15 03:03:00;;;;;;;40.80;25.10;;;;;;;-147.86;100.00;51636.07;105832;1253;60459;-58
2024/02/15 03:05:29;;;;;;;42.50;26.70;;;;;;;-147.86;100.00;51691.79;105839;1254;59945;-59
2024/02/15 03:07:57;;;;;;;39.20;23.50;;;;;;;-147.86;100.00;51877.80;105735;1253;71569;-56
2024/02/15 03:10:24;;;;;;;41.20;25.00;;;;;;;-147.86;100.00;51913.51;105690;1254;64612;-57
2024/02/15 03:12:52;;;;;;;42.00;24.00;;;;;;;-147.86;100.00;51891.14;105679;1257;73116;-58
2024/02/15 03:15:20;;;;;;;38.30;23.60;;;;;;;-147.86;100.00;51820.90;105882;1253;60377;-56
2024/02/15 03:17:51;;;;;;;36.00;23.20;;;;;;;-147.86;100.00;51783.22;105752;1254;59988;-56
2024/02/15 03:20:23;;;;;;;33.00;21.70;;;;;;;-147.86;100.00;51749.08;105680;1254;72993;-57
2024/02/15 03:23:02;;;;;;;36.10;21.40;;;;;;;-147.86;100.00;51654.51;105750;1257;63145;-58
2024/02/15 03:25:30;;;;;;;36.90;21.70;;;;;;;-147.86;100.00;51514.82;105693;1259;71744;-60
2024/02/15 03:27:59;;;;;;;37.70;22.10;;;;;;;-147.86;100.00;51603.10;105635;1254;61676;-60
2024/02/15 03:30:29;;;;;;;36.20;22.00;;;;;;;-147.86;100.00;51522.27;105831;1254;59997;-58
2024/02/15 03:32:57;;;;;;;32.40;21.00;;;;;;;-147.86;100.00;51516.77;105757;1254;71846;-58
2024/02/15 03:35:28;;;;;;;36.30;22.80;;;;;;;-147.86;100.00;51508.14;105727;1254;65012;-58
2024/02/15 03:37:56;;;;;;;42.10;24.00;;;;;;;-147.86;100.00;51580.35;105641;1259;71763;-57
2024/02/15 03:40:26;;;;;;;37.80;23.50;;;;;;;-147.86;100.00;51694.54;105760;1253;60007;-55
2024/02/15 03:42:54;;;;;;;38.30;23.80;;;;;;;-147.86;100.00;51740.84;105729;1256;59654;-58
2024/02/15 03:45:24;;;;;;;42.10;25.60;;;;;;;-147.86;100.00;51866.81;105738;1256;72110;-58
2024/02/15 03:47:54;;;;;;;39.10;24.40;;;;;;;-147.86;100.00;51880.16;105676;1258;63363;-56
2024/02/15 03:50:23;;;;;;;42.60;25.10;;;;;;;-147.86;100.00;51833.84;105834;1257;71139;-58
2024/02/15 03:52:51;;;;;;;39.00;24.30;;;;;;;-147.86;100.00;51809.13;105723;1256;60455;-54
2024/02/15 03:55:19;;;;;;;39.00;23.00;;;;;;;-147.86;100.00;51793.43;105692;1259;60457;-55
2024/02/15 03:57:47;;;;;;;36.70;24.40;;;;;;;-147.86;100.00;51734.56;105738;1254;72078;-55
2024/02/15 04:00:20;;;;;;;37.80;24.00;;;;;;;-147.86;100.00;51765.17;105692;1258;64927;-57
2024/02/15 04:02:49;;;;;;;38.60;24.50;;;;;;;-147.86;100.00;51740.45;105699;1254;72609;-57
2024/02/15 04:05:18;;;;;;;36.90;23.40;;;;;;;-147.86;100.00;51792.64;105688;1261;60434;-59
2024/02/15 04:07:47;;;;;;;34.40;23.70;;;;;;;-147.86;100.00;51787.54;105725;1257;59663;-58
2024/02/15 04:10:18;;;;;;;35.50;22.40;;;;;;;-147.86;100.00;51838.16;105694;1258;72271;-59
2024/02/15 04:12:46;;;;;;;32.50;20.40;;;;;;;-147.86;100.00;51864.06;105714;1259;63129;-58
2024/02/15 04:15:16;;;;;;;30.40;19.60;;;;;;;-147.86;100.00;51887.22;105715;1254;72729;-56
2024/02/15 04:17:45;;;;;;;28.90;18.40;;;;;;;-147.86;100.00;51884.08;105810;1257;59747;-59
2024/02/15 04:20:15;;;;;;;31.60;19.60;;;;;;;-147.86;100.00;51968.45;105691;1259;59659;-59
2024/02/15 04:22:44;;;;;;;31.60;20.20;;;;;;;-147.86;100.00;52033.60;105667;1254;71545;-57
2024/02/15 04:25:16;;;;;;;32.40;19.90;;;;;;;-147.86;100.00;52197.65;105710;1260;64411;-58
2024/02/15 04:27:46;;;;;;;37.90;20.40;;;;;;;-147.86;100.00;52143.88;105687;1254;71383;-57
2024/02/15 04:30:15;;;;;;;32.20;19.20;;;;;;;-147.86;100.00;52299.30;105708;1256;59682;-57
2024/02/15 04:32:44;;;;;;;26.60;18.80;;;;;;;-147.86;100.00;52342.47;105702;1254;59991;-57
2024/02/15 04:35:12;;;;;;;31.80;19.30;;;;;;;-147.86;100.00;52570.51;105815;1257;71182;-57
2024/02/15 04:37:42;;;;;;;25.20;17.00;;;;;;;-147.86;100.00;52651.37;105699;1258;62143;-60
2024/02/15 04:40:13;;;;;;;28.70;17.70;;;;;;;-147.86;100.00;52748.32;105688;1259;71427;-57
2024/02/15 04:42:43;;;;;;;26.10;18.30;;;;;;;-147.86;100.00;52764.02;105711;1254;60687;-59
2024/02/15 04:45:13;;;;;;;30.60;19.10;;;;;;;-147.86;100.00;52967.36;105829;1253;59574;-57
2024/02/15 04:47:45;;;;;;;28.90;18.40;;;;;;;-147.86;100.00;53191.51;105766;1254;71726;-58
2024/02/15 04:50:18;;;;;;;29.90;19.50;;;;;;;-147.86;100.00;53240.19;105688;1260;63210;-59
2024/02/15 04:52:48;;;;;;;27.10;17.90;;;;;;;-147.86;100.00;53233.90;105672;1254;71388;-57
2024/02/15 04:55:17;;;;;;;27.30;19.10;;;;;;;-147.86;100.00;53363.06;105692;1254;60446;-56
2024/02/15 04:57:48;;;;;;;28.60;19.70;;;;;;;-147.86;100.00;53496.93;105705;1259;59659;-57
2024/02/15 05:00:20;;;;;;;27.60;18.70;;;;;;;-147.86;100.00;53628.07;105719;1255;72996;-55
2024/02/15 05:02:49;;;;;;;25.40;17.90;;;;;;;-147.86;100.00;53757.63;105732;1254;64512;-57
2024/02/15 05:05:17;;;;;;;24.20;16.50;;;;;;;-147.86;100.00;53893.87;105693;1254;71069;-59
2024/02/15 05:07:45;;;;;;;26.00;16.80;;;;;;;-147.86;100.00;53930.77;105690;1258;61776;-59
2024/02/15 05:10:14;;;;;;;25.40;17.20;;;;;;;-147.86;100.00;54058.39;105696;1257;59558;-59
2024/02/15 05:12:42;;;;;;;24.90;16.00;;;;;;;-147.86;100.00;54201.32;105698;1254;73036;-59
2024/02/15 05:15:10;;;;;;;27.60;16.40;;;;;;;-147.86;100.00;54356.03;105750;1254;64476;-59
2024/02/15 05:17:43;;;;;;;22.50;15.80;;;;;;;-147.86;100.00;54455.38;105806;1254;71453;-59
2024/02/15 05:20:12;;;;;;;21.60;14.40;;;;;;;-147.86;100.00;54588.51;105735;1257;60364;-57
2024/02/15 05:22:45;;;;;;;21.60;14.50;;;;;;;-147.86;100.00;54822.56;105684;1254;60043;-56
2024/02/15 05:25:22;;;;;;;24.30;14.70;;;;;;;-147.86;100.00;54806.07;105724;1253;71784;-59
2024/02/15 05:27:55;;;;;;;22.50;14.40;;;;;;;-147.86;100.00;54923.89;105663;1259;63166;-56
2024/02/15 05:30:27;;;;;;;22.20;15.40;;;;;;;-147.86;100.00;55011.48;105643;1254;71432;-56
2024/02/15 05:32:56;;;;;;;22.60;16.00;;;;;;;-147.86;100.00;55242.81;105747;1254;61623;-55
2024/02/15 05:35:24;;;;;;;22.60;16.00;;;;;;;-147.86;100.00;55477.30;105738;1258;59656;-60
2024/02/15 05:37:53;;;;;;;24.50;14.70;;;;;;;-147.86;100.00;55622.24;105836;1257;71751;-59
2024/02/15 05:40:21;;;;;;;18.70;13.00;;;;;;;-147.86;100.00;55756.98;105651;1254;63221;-60
2024/02/15 05:42:54;;;;;;;21.60;14.50;;;;;;;-147.86;100.00;55979.71;105666;1259;72698;-57
2024/02/15 05:45:25;;;;;;;22.70;15.00;;;;;;;-147.86;100.00;56072.04;105700;1254;60371;-57
2024/02/15 05:47:54;;;;;;;22.60;14.30;;;;;;;-147.86;100.00;56296.36;105769;1257;61005;-55
2024/02/15 05:50:23;;;;;;;22.40;14.40;;;;;;;-147.86;100.00;56556.45;105624;1259;73000;-59
2024/02/15 05:52:54;;;;;;;23.30;14.20;;;;;;;-147.86;100.00;56641.71;105767;1254;63165;-58
2024/02/15 05:55:26;;;;;;;17.90;13.10;;;;;;;-147.86;100.00;56782.77;105793;1254;71693;-57
2024/02/15 05:57:54;;;;;;;20.80;14.50;;;;;;;-147.86;100.00;56899.47;105663;1259;60489;-55
2024/02/15 06:00:21;;;;;;;19.80;12.90;;;;;;;-147.86;100.00;57116.77;105698;1253;60040;-57
2024/02/15 06:02:52;;;;;;;21.80;13.30;;;;;;;-147.86;100.00;57356.09;105707;1253;71768;-58
2024/02/15 06:05:20;;;;;;;19.90;13.30;;;;;;;-147.86;100.00;57571.84;105691;1254;64329;-56
2024/02/15 06:07:48;;;;;;;19.80;13.20;;;;;;;-147.86;100.00;57791.53;105653;1254;71429;-56
2024/02/15 06:10:17;;;;;;;19.40;13.30;;;;;;;-147.86;100.00;57798.99;105695;1254;61764;-58
2024/02/15 06:12:45;;;;;;;20.20;13.30;;;;;;;-147.86;100.00;57831.62;105716;1258;59564;-58
2024/02/15 06:15:20;;;;;;;19.70;12.60;;;;;;;-147.86;100.00;58032.46;105660;1259;73000;-57
2024/02/15 06:17:49;;;;;;;23.40;12.90;;;;;;;-147.86;100.00;58039.54;105739;1254;63217;-55
2024/02/15 06:20:21;;;;;;;19.40;13.50;;;;;;;-147.86;100.00;58208.95;105705;1259;71340;-59
2024/02/15 06:22:48;;;;;;;17.70;11.90;;;;;;;-147.86;100.00;58309.57;105757;1254;60387;-58
2024/02/15 06:25:20;;;;;;;20.70;12.60;;;;;;;-147.86;100.00;58363.81;105708;1253;60001;-58
2024/02/15 06:27:58;;;;;;;17.90;12.20;;;;;;;-147.86;100.00;58342.59;105687;1254;71793;-57
2024/02/15 06:41:37;;;;;;;17.30;11.50;;;;;;;-147.86;100.00;58523.02;105605;1253;72590;-59
2024/02/15 06:44:04;;;;;;;16.80;11.20;;;;;;;-147.86;100.00;58773.42;105651;1254;63684;-59
2024/02/15 06:46:32;;;;;;;18.00;13.00;;;;;;;-147.86;100.00;58809.59;105693;1254;71328;-57
2024/02/15 06:49:00;;;;;;;14.50;10.70;;;;;;;-147.86;100.00;58898.83;105648;1254;60530;-59
2024/02/15 06:51:28;;;;;;;13.00;10.60;;;;;;;-147.86;100.00;58943.65;105803;1253;60520;-57
2024/02/15 06:53:56;;;;;;;109.10;58.70;;;;;;;-147.86;100.00;58971.56;105750;1254;73850;-57
2024/02/15 06:56:24;;;;;;;12.40;9.50;;;;;;;-147.86;100.00;59046.66;105681;1254;63279;-58
2024/02/15 06:58:53;;;;;;;15.70;10.70;;;;;;;-147.86;100.00;59076.93;105693;1254;71536;-57
2024/02/15 07:01:25;;;;;;;10.90;9.00;;;;;;;-147.86;100.00;59063.16;105702;1254;60552;-55
2024/02/15 07:03:53;;;;;;;14.40;9.50;;;;;;;-147.86;100.00;59173.64;105709;1254;60495;-57
2024/02/15 07:06:27;;;;;;;15.00;10.60;;;;;;;-147.86;100.00;59203.13;105689;1259;73834;-59
2024/02/15 07:08:57;;;;;;;13.20;9.10;;;;;;;-147.86;100.00;59306.14;105724;1259;63238;-58
2024/02/15 07:11:24;;;;;;;106.10;37.30;;;;;;;-147.86;100.00;59192.12;105639;1254;71394;-58
2024/02/15 07:13:54;;;;;;;12.60;9.40;;;;;;;-147.86;100.00;59187.01;105673;1259;60535;-56
2024/02/15 07:16:23;;;;;;;13.10;9.50;;;;;;;-147.86;100.00;59167.35;105819;1256;60425;-56
2024/02/15 07:18:51;;;;;;;20.90;15.10;;;;;;;-147.86;100.00;59281.76;105688;1254;72596;-55
2024/02/15 07:21:25;;;;;;;13.50;9.00;;;;;;;-147.86;100.00;59401.68;105681;1254;63227;-59
2024/02/15 07:23:57;;;;;;;12.40;9.00;;;;;;;-147.86;100.00;59326.98;105708;1254;70468;-58
2024/02/15 07:26:25;;;;;;;13.70;9.20;;;;;;;-147.86;100.00;59433.53;105667;1259;61621;-59
2024/02/15 07:28:57;;;;;;;13.40;9.90;;;;;;;-147.86;100.00;59392.24;105742;1257;60367;-59
2024/02/15 07:31:27;;;;;;;14.70;8.90;;;;;;;-147.86;100.00;59474.81;105703;1254;72657;-58
2024/02/15 07:33:55;;;;;;;13.90;10.60;;;;;;;-147.86;100.00;59572.72;105693;1259;63121;-57
2024/02/15 07:36:23;;;;;;;10.80;7.90;;;;;;;-147.86;100.00;59720.56;105745;1259;71432;-57
2024/02/15 07:38:53;;;;;;;8.20;7.40;;;;;;;-147.86;100.00;59742.20;105693;1255;60504;-58
2024/02/15 07:41:22;;;;;;;11.80;8.60;;;;;;;-147.86;100.00;59826.74;105679;1259;61054;-57
2024/02/15 07:43:50;;;;;;;12.50;8.30;;;;;;;-147.86;100.00;59943.13;105654;1254;72610;-57
2024/02/15 07:46:18;;;;;;;7.50;6.30;;;;;;;-147.86;100.00;59977.74;105747;1254;64493;-58
2024/02/15 07:48:46;;;;;;;9.10;7.20;;;;;;;-147.86;100.00;59954.14;105663;1254;72610;-57
2024/02/15 07:51:15;;;;;;;13.70;10.50;;;;;;;-147.86;100.00;60065.04;105669;1258;60466;-58
2024/02/15 07:53:43;;;;;;;11.90;9.30;;;;;;;-147.86;100.00;60112.23;105708;1259;60371;-58
2024/02/15 07:56:11;;;;;;;10.30;8.00;;;;;;;-147.86;100.00;60106.32;105691;1254;72558;-56
2024/02/15 07:58:46;;;;;;;10.30;8.20;;;;;;;-147.86;100.00;60267.56;105724;1259;63225;-58
2024/02/15 08:01:22;;;;;;;9.10;7.60;;;;;;;-147.86;100.00;60238.07;105639;1254;72629;-58
2024/02/15 08:03:53;;;;;;;11.10;8.00;;;;;;;-147.86;100.00;60341.11;105678;1254;60619;-59
2024/02/15 08:06:27;;;;;;;12.00;8.10;;;;;;;-147.86;100.00;60253.01;105663;1259;60811;-56
2024/02/15 08:08:57;;;;;;;13.00;8.10;;;;;;;-147.86;100.00;60089.42;105690;1254;72447;-58
2024/02/15 08:11:26;;;;;;;24.10;13.70;;;;;;;-147.86;100.00;59996.61;105746;1254;64565;-58
2024/02/15 08:56:13;;;;;;;11.80;8.60;;;;;;;-147.86;100.00;68167.32;102806;1290;600937;-59
2024/02/15 08:58:42;;;;;;;10.90;8.00;;;;;;;-147.86;100.00;57886.25;105061;1267;61630;-59
2024/02/15 09:01:11;;;;;;;11.50;7.90;;;;;;;-147.86;100.00;57846.95;105048;1264;59537;-56
2024/02/15 09:03:38;;;;;;;8.80;7.40;;;;;;;-147.86;100.00;57822.58;105029;1269;71108;-58
2024/02/15 09:06:07;;;;;;;9.80;8.00;;;;;;;-147.86;100.00;57877.60;105047;1269;66294;-55
2024/02/15 09:08:36;;;;;;;10.50;7.40;;;;;;;-147.86;100.00;57837.12;105103;1269;74957;-58
2024/02/15 09:11:03;;;;;;;9.30;7.90;;;;;;;-147.86;100.00;57846.16;105080;1264;246310;-58
2024/02/15 09:13:37;;;;;;;15.00;9.60;;;;;;;-147.86;100.00;57869.74;105203;1264;59361;-56
2024/02/15 09:16:05;;;;;;;12.50;8.50;;;;;;;-147.86;100.00;57852.06;105176;1262;72616;-55
2024/02/15 09:18:33;;;;;;;10.70;8.30;;;;;;;-147.86;100.00;57919.26;105229;1266;64975;-57
2024/02/15 09:21:01;;;;;;;8.20;6.80;;;;;;;-147.86;100.00;57886.25;105210;1264;73312;-56
2024/02/15 09:23:31;;;;;;;8.40;6.70;;;;;;;-147.86;100.00;57731.79;105253;1266;63898;-58
2024/02/15 09:25:59;;;;;;;7.60;6.80;;;;;;;-147.86;100.00;57628.03;105265;1263;59877;-57
2024/02/15 09:28:26;;;;;;;9.80;6.70;;;;;;;-147.86;100.00;57529.79;105203;1264;72883;-58
2024/02/15 09:30:59;;;;;;;10.40;7.10;;;;;;;-147.86;100.00;57381.23;105241;1266;64804;-59
2024/02/15 09:33:27;;;;;;;11.10;6.20;;;;;;;-147.86;100.00;57124.23;105227;1266;71396;-58
2024/02/15 09:35:55;;;;;;;9.00;6.40;;;;;;;-147.86;100.00;56965.48;105158;1264;60445;-57
2024/02/15 09:38:25;;;;;;;11.60;7.30;;;;;;;-147.86;100.00;56820.88;105183;1262;59851;-58
2024/02/15 09:40:54;;;;;;;8.90;6.60;;;;;;;-147.86;100.00;56675.11;105264;1266;75184;-57
2024/02/15 09:43:25;;;;;;;8.10;7.00;;;;;;;-147.86;100.00;56464.90;105222;1266;64361;-58
2024/02/15 09:45:54;;;;;;;7.10;6.10;;;;;;;-147.86;100.00;56237.82;105248;1264;72748;-59
2024/02/15 09:48:23;;;;;;;14.80;10.30;;;;;;;-147.86;100.00;56059.46;105279;1266;61898;-57
2024/02/15 09:50:53;;;;;;;9.80;6.90;;;;;;;-147.86;100.00;55950.64;105237;1263;60770;-58
2024/02/15 09:53:27;;;;;;;12.20;9.00;;;;;;;-147.86;100.00;55716.91;105117;1264;74111;-59
2024/02/15 09:55:55;;;;;;;8.70;6.90;;;;;;;-147.86;100.00;55391.27;105199;1264;63254;-59
2024/02/15 09:58:23;;;;;;;8.40;6.80;;;;;;;-147.86;100.00;55108.08;105120;1264;72449;-57
2024/02/15 10:00:50;;;;;;;11.20;6.80;;;;;;;-147.86;100.00;54768.37;105092;1269;62836;-58
2024/02/15 10:03:20;;;;;;;8.30;6.30;;;;;;;-147.86;100.00;54400.01;105168;1267;59589;-57
2024/02/15 10:05:49;;;;;;;8.40;6.90;;;;;;;-147.86;100.00;54018.73;105206;1267;75866;-56
2024/02/15 10:08:17;;;;;;;7.50;5.40;;;;;;;-147.86;100.00;53777.26;105225;1265;65743;-56
2024/02/15 10:10:45;;;;;;;8.30;6.60;;;;;;;-147.86;100.00;53529.13;105216;1260;73011;-58
2024/02/15 10:13:14;;;;;;;6.00;5.40;;;;;;;-147.86;100.00;53315.95;105246;1264;62795;-57
2024/02/15 10:15:43;;;;;;;7.30;6.20;;;;;;;-147.86;100.00;53012.49;105239;1264;59816;-58
2024/02/15 10:18:12;;;;;;;10.50;8.10;;;;;;;-147.86;100.00;52758.52;105855;1254;75295;-58
2024/02/15 10:20:44;;;;;;;9.40;7.10;;;;;;;-147.86;100.00;52603.48;105923;1256;64529;-59
2024/02/15 10:23:17;;;;;;;7.00;6.00;;;;;;;-147.86;100.00;52409.98;105763;1257;72780;-57
2024/02/15 10:25:46;;;;;;;10.70;6.80;;;;;;;-147.86;100.00;52189.01;105854;1254;63911;-59
2024/02/15 10:28:20;;;;;;;6.00;5.50;;;;;;;-147.86;100.00;52063.43;105947;1254;62351;-57
2024/02/15 10:30:49;;;;;;;10.40;6.60;;;;;;;-147.86;100.00;51893.50;105708;1259;73537;-58
2024/02/15 10:33:22;;;;;;;9.50;6.60;;;;;;;-147.86;100.00;51862.10;105783;1256;65575;-59
2024/02/15 10:35:50;;;;;;;16.20;11.20;;;;;;;-147.86;100.00;51656.47;105872;1254;72658;-58
2024/02/15 10:38:18;;;;;;;6.80;6.00;;;;;;;-147.86;100.00;51504.21;105759;1257;61563;-60
2024/02/15 10:40:47;;;;;;;10.10;7.40;;;;;;;-147.86;100.00;51404.54;105889;1254;60996;-55
2024/02/15 10:43:14;;;;;;;6.90;6.00;;;;;;;-147.86;100.00;51192.27;105680;1260;73630;-59
2024/02/15 10:45:42;;;;;;;12.40;8.50;;;;;;;-147.86;100.00;51122.04;105665;1261;63465;-58
2024/02/15 10:48:10;;;;;;;8.80;7.30;;;;;;;-147.86;100.00;51016.10;105760;1252;73479;-58
2024/02/15 10:50:42;;;;;;;9.10;7.20;;;;;;;-147.86;100.00;50691.24;105860;1256;63505;-57
2024/02/15 10:53:25;;;;;;;7.40;6.60;;;;;;;-147.86;100.00;50526.87;105672;1253;60219;-57
2024/02/15 10:56:02;;;;;;;18.30;7.20;;;;;;;-147.86;100.00;50255.41;105870;1257;74715;-57
2024/02/15 10:58:35;;;;;;;9.90;7.10;;;;;;;-147.86;100.00;50102.82;105745;1257;63340;-56
2024/02/15 11:01:03;;;;;;;8.60;6.70;;;;;;;-147.86;100.00;50097.71;105764;1254;73940;-57
2024/02/15 11:03:41;;;;;;;10.10;6.60;;;;;;;-147.86;100.00;50027.89;105726;1254;62270;-58
2024/02/15 11:06:08;;;;;;;9.70;7.60;;;;;;;-147.86;100.00;49758.43;105759;1256;61197;-55
2024/02/15 11:08:37;;;;;;;9.10;6.60;;;;;;;-147.86;100.00;49789.01;105697;1254;72992;-59
2024/02/15 11:11:05;;;;;;;11.00;6.80;;;;;;;-147.86;100.00;49723.12;105941;1256;64390;-56
2024/02/15 11:13:33;;;;;;;10.00;7.60;;;;;;;-147.86;100.00;49633.30;105867;1254;73906;-57
2024/02/15 11:16:01;;;;;;;8.00;7.20;;;;;;;-147.86;100.00;49610.55;105802;1254;60268;-57
2024/02/15 11:18:48;;;;;;;10.70;7.80;;;;;;;-147.86;100.00;49585.45;105871;1258;59520;-59
2024/02/15 11:21:20;;;;;;;10.90;7.90;;;;;;;-147.86;100.00;49211.71;105902;1257;75407;-59
2024/02/15 11:23:49;;;;;;;12.40;7.90;;;;;;;-147.86;100.00;49413.28;105788;1257;66866;-58
2024/02/15 11:26:52;;;;;;;8.30;7.30;;;;;;;-147.86;100.00;49506.23;105729;1253;72571;-56
2024/02/15 11:29:54;;;;;;;9.00;7.60;;;;;;;-147.86;100.00;49007.80;105815;1256;63508;-58
2024/02/15 11:32:51;;;;;;;13.60;9.20;;;;;;;-147.86;100.00;48813.30;105888;1254;62122;-58
2024/02/15 11:35:22;;;;;;;33.70;16.30;;;;;;;-147.86;100.00;48858.39;105959;1256;73325;-55
2024/02/15 11:37:53;;;;;;;10.90;7.90;;;;;;;-147.86;100.00;49246.60;105819;1256;64583;-58
2024/02/15 11:40:23;;;;;;;10.30;7.20;;;;;;;-147.86;100.00;49235.23;105890;1254;72639;-60
2024/02/15 11:42:58;;;;;;;12.10;8.70;;;;;;;-147.86;100.00;49150.52;105895;1257;62030;-59
2024/02/15 11:45:32;;;;;;;9.00;7.00;;;;;;;-147.86;100.00;48926.99;105802;1254;60048;-58
2024/02/15 11:48:01;;;;;;;11.40;7.20;;;;;;;-147.86;100.00;48834.05;105892;1252;73302;-59
2024/02/15 11:50:35;;;;;;;10.50;7.70;;;;;;;-147.86;100.00;48749.35;105758;1259;66686;-58
2024/02/15 11:53:10;;;;;;;10.90;7.60;;;;;;;-147.86;100.00;48599.17;105603;1257;73773;-58
2024/02/15 11:55:40;;;;;;;9.50;6.60;;;;;;;-147.86;100.00;48523.89;105787;1256;61913;-60